Aviation Digital Data Service (ADDS)

Output produced by METARs form (0429 UTC 26 May 2018)
found at http://www.aviationweather.gov/adds/metars/
 
VVDN 260400Z VRB01KT 9999 FEW015 SCT060 36/22 Q1009 NOSIG
TAF VVDN 252300Z 2600/2624 22003KT 9999 FEW015 SCT060 
     BECMG 2603/2604 12011KT 
     TEMPO 2608/2612 TS FEW015 FEW017CB SCT060 
     BECMG 2612/2613 23003KT
       
VVNB 260400Z 07006KT 020V110 9999 FEW023 34/26 Q1006 NOSIG
TAF VVNB 252300Z 2600/2624 12008KT 9999 FEW030
       
VVTS 260400Z VRB03KT 9999 BKN017 35/25 Q1009 NOSIG
TAF VVTS 252300Z 2600/2706 VRB03KT 9999 SCT017 SCT050 
     TEMPO 2608/2612 14015G28KT 5000 TSRA BKN013 SCT015CB